createdAt,value
2018-12-03T00:01:35.667Z,104753.41
2018-12-03T00:03:11.316Z,104771.77
2018-12-03T00:04:47.012Z,104780.23
2018-12-03T00:06:24.242Z,104784.34
2018-12-03T00:08:00.856Z,104793.41
2018-12-03T00:09:39.797Z,104807.70
2018-12-03T00:13:11.552Z,103223.88
2018-12-03T00:17:08.020Z,104946.73
2018-12-03T00:18:55.580Z,104937.42
2018-12-03T00:26:59.142Z,104870.13
2018-12-03T00:28:46.414Z,104876.16
2018-12-03T00:34:37.527Z,104788.03
2018-12-03T00:38:34.189Z,104726.12
2018-12-03T00:42:09.557Z,104717.81
2018-12-03T00:45:48.196Z,104730.88
2018-12-03T00:50:17.892Z,104728.09
2018-12-03T00:51:41.763Z,104727.21
2018-12-03T00:53:30.179Z,104710.73
2018-12-03T00:57:05.979Z,104713.22
2018-12-03T00:58:29.980Z,104699.77
2018-12-03T01:00:45.646Z,104687.44
2018-12-03T01:02:40.333Z,104676.72
2018-12-03T01:04:16.799Z,104680.84
2018-12-03T01:05:53.178Z,104664.09
2018-12-03T01:07:48.619Z,104643.27
2018-12-03T01:09:26.743Z,104652.55
2018-12-03T01:13:23.170Z,104649.58
2018-12-03T01:15:18.717Z,104641.89
2018-12-03T01:17:13.291Z,104634.51
2018-12-03T01:18:49.617Z,104638.08
2018-12-03T01:20:25.830Z,104634.51
2018-12-03T01:22:21.182Z,104654.80
2018-12-03T01:26:04.839Z,104645.51
2018-12-03T01:27:40.963Z,104660.87
2018-12-03T01:29:47.744Z,104651.03
2018-12-03T01:31:24.884Z,104664.77
2018-12-03T01:33:01.612Z,104684.55
2018-12-03T01:34:37.796Z,104713.99
2018-12-03T01:36:32.699Z,104704.40
2018-12-03T01:39:54.903Z,104730.77
2018-12-03T01:42:23.922Z,104726.12
2018-12-03T01:43:48.585Z,104726.38
2018-12-03T01:45:25.868Z,104744.48
2018-12-03T01:47:02.544Z,104743.48
2018-12-03T01:48:57.623Z,104749.19
2018-12-03T01:52:35.988Z,104764.63
2018-12-03T01:56:07.047Z,104755.37
2018-12-03T01:58:22.043Z,104761.44
2018-12-03T01:59:58.303Z,104787.20
2018-12-03T02:01:53.686Z,104854.13
2018-12-03T02:03:29.934Z,104855.25
2018-12-03T02:05:07.226Z,104874.44
2018-12-03T02:06:43.389Z,104880.52
2018-12-03T02:08:52.609Z,104878.60
2018-12-03T02:12:14.567Z,104866.51
2018-12-03T02:13:50.823Z,104861.86
2018-12-03T02:15:46.442Z,104856.13
2018-12-03T02:17:22.597Z,104852.84
2018-12-03T02:18:58.772Z,104844.62
2018-12-03T02:20:34.852Z,104824.59
2018-12-03T02:22:29.897Z,104828.76
2018-12-03T02:24:06.130Z,104803.25
2018-12-03T02:25:42.234Z,104799.09
2018-12-03T02:27:21.082Z,104800.46
2018-12-03T02:29:16.710Z,104800.22
2018-12-03T02:31:04.120Z,104802.13
2018-12-03T02:34:58.237Z,104805.70
2018-12-03T02:36:34.588Z,104804.57
2018-12-03T02:38:11.394Z,104793.90
2018-12-03T02:40:26.776Z,104775.78
2018-12-03T02:42:03.147Z,104775.78
2018-12-03T02:43:39.944Z,104780.73
2018-12-03T02:45:35.304Z,104762.91
2018-12-03T02:47:11.512Z,104759.09
2018-12-03T02:51:07.878Z,104720.66
2018-12-03T02:54:39.153Z,104715.17
2018-12-03T02:56:54.437Z,104714.05
2018-12-03T03:01:20.952Z,104708.32
2018-12-03T03:03:04.289Z,104612.66
2018-12-03T03:05:03.017Z,104405.92
2018-12-03T03:16:08.028Z,104271.59
2018-12-03T03:19:45.445Z,104221.70
2018-12-03T03:21:21.616Z,104229.39
2018-12-03T03:24:59.916Z,104212.94
2018-12-03T03:26:35.975Z,104211.28
2018-12-03T03:34:27.111Z,104220.92
2018-12-03T03:37:47.401Z,104213.52
2018-12-03T03:39:23.427Z,104206.67
2018-12-03T03:40:59.422Z,104202.56
2018-12-03T03:42:35.519Z,104203.38
2018-12-03T03:44:30.298Z,104205.30
2018-12-03T03:46:06.963Z,104195.98
2018-12-03T03:47:42.971Z,104215.44
2018-12-03T03:53:49.046Z,104202.30
2018-12-03T03:55:26.939Z,104224.48
2018-12-03T03:57:21.765Z,104211.05
2018-12-03T03:59:00.180Z,104229.39
2018-12-03T04:00:36.132Z,104209.63
2018-12-03T04:02:12.232Z,104214.29
2018-12-03T04:08:09.463Z,104229.89
2018-12-03T04:09:57.005Z,104219.19
2018-12-03T04:14:03.705Z,104198.07
2018-12-03T04:18:17.126Z,104153.87
2018-12-03T04:24:10.974Z,104163.47
2018-12-03T04:25:57.877Z,104140.17
2018-12-03T04:28:13.283Z,104143.18
2018-12-03T04:29:49.426Z,104141.79
2018-12-03T04:34:04.558Z,104141.53
2018-12-03T04:35:40.648Z,104130.27
2018-12-03T04:39:59.923Z,104142.31
2018-12-03T04:47:56.766Z,104180.66
2018-12-03T04:50:11.741Z,104174.89
2018-12-03T04:51:58.967Z,104158.73
2018-12-03T04:53:46.059Z,104163.67
2018-12-03T04:55:32.929Z,104151.61
2018-12-03T04:57:59.691Z,104134.32
2018-12-03T04:59:46.841Z,104118.14
2018-12-03T05:01:22.935Z,104104.69
2018-12-03T05:03:01.354Z,104092.62
2018-12-03T05:06:52.895Z,104079.22
2018-12-03T05:13:22.344Z,103988.80
2018-12-03T05:15:09.303Z,103963.59
2018-12-03T05:16:57.094Z,103918.95
2018-12-03T05:18:44.896Z,103894.30
2018-12-03T05:22:40.699Z,103873.77
2018-12-03T05:26:37.571Z,103823.64
2018-12-03T05:28:42.661Z,103822.27
2018-12-03T05:32:27.390Z,103786.94
2018-12-03T05:34:14.665Z,103770.50
2018-12-03T05:36:11.365Z,103762.83
2018-12-03T05:37:58.296Z,103762.02
2018-12-03T05:42:05.956Z,103766.14
2018-12-03T05:49:59.811Z,103756.25
2018-12-03T05:53:46.867Z,103754.88
2018-12-03T06:07:03.633Z,103749.16
2018-12-03T06:08:51.608Z,103746.14
2018-12-03T06:11:18.350Z,103746.69
2018-12-03T06:17:19.598Z,103726.97
2018-12-03T06:18:56.269Z,103719.30
2018-12-03T06:20:35.812Z,103712.72
2018-12-03T06:22:12.416Z,103694.36
2018-12-03T06:23:49.423Z,103720.11
2018-12-03T06:25:31.815Z,103707.23
2018-12-03T06:27:08.604Z,103683.41
2018-12-03T06:35:08.673Z,103654.38
2018-12-03T06:39:02.456Z,103639.59
2018-12-03T06:43:00.003Z,103620.97
2018-12-03T06:44:54.903Z,103604.53
2018-12-03T06:46:42.340Z,103604.26
2018-12-03T06:48:28.086Z,103607.55
2018-12-03T06:50:04.311Z,103593.58
2018-12-03T06:51:43.995Z,103587.03
2018-12-03T06:53:23.299Z,103574.71
2018-12-03T06:54:59.540Z,103596.63
2018-12-03T06:56:35.658Z,103591.94
2018-12-03T06:58:11.778Z,103589.78
2018-12-03T06:59:48.113Z,103583.75
2018-12-03T07:02:03.199Z,103578.82
2018-12-03T07:06:14.381Z,103563.48
2018-12-03T07:07:38.162Z,103537.20
2018-12-03T07:10:05.441Z,103523.51
2018-12-03T07:11:44.865Z,103545.96
2018-12-03T07:13:31.476Z,103533.64
2018-12-03T07:15:19.063Z,103530.91
2018-12-03T07:17:48.183Z,103527.89
2018-12-03T07:23:26.500Z,103495.86
2018-12-03T07:25:03.331Z,103520.77
2018-12-03T07:26:42.397Z,103522.69
2018-12-03T07:28:21.169Z,103527.06
2018-12-03T07:29:57.915Z,103534.73
2018-12-03T07:32:27.008Z,103525.97
2018-12-03T07:34:29.961Z,103517.76
2018-12-03T07:36:06.673Z,103492.88
2018-12-03T07:37:43.279Z,103482.48
2018-12-03T07:39:19.472Z,103483.30
2018-12-03T07:40:55.958Z,103464.73
2018-12-03T07:42:32.253Z,103465.58
2018-12-03T07:44:11.465Z,103451.90
2018-12-03T07:45:47.702Z,103448.06
2018-12-03T07:47:24.110Z,103426.45
2018-12-03T07:49:03.918Z,103431.92
2018-12-03T07:50:40.321Z,103430.01
2018-12-03T07:52:17.379Z,103429.19
2018-12-03T07:53:54.219Z,103404.29
2018-12-03T07:55:30.642Z,103407.02
2018-12-03T07:57:07.896Z,103393.89
2018-12-03T07:58:44.413Z,103367.66
2018-12-03T08:02:38.409Z,103359.69
2018-12-03T08:12:48.304Z,103299.42
2018-12-03T08:14:37.737Z,103265.81
2018-12-03T08:18:45.261Z,103252.70
2018-12-03T08:20:58.843Z,103235.52
2018-12-03T08:22:51.058Z,103198.34
2018-12-03T08:29:16.338Z,103131.67
2018-12-03T08:35:36.364Z,103175.17
2018-12-03T08:47:52.700Z,103073.94
2018-12-03T08:49:41.243Z,103070.05
2018-12-03T08:51:22.840Z,103062.88
2018-12-03T08:53:19.925Z,103046.17
2018-12-03T08:55:10.347Z,103041.49
2018-12-03T08:57:01.716Z,103017.67
2018-12-03T08:58:43.229Z,103002.05
2018-12-03T09:00:58.389Z,102989.73
2018-12-03T09:02:49.559Z,102989.13
2018-12-03T09:04:37.467Z,102965.86
2018-12-03T09:07:18.348Z,102954.36
2018-12-03T09:12:13.413Z,102885.42
2018-12-03T09:13:54.403Z,102820.83
2018-12-03T09:19:49.598Z,102755.73
2018-12-03T09:21:30.082Z,102745.64
2018-12-03T09:23:09.769Z,102752.45
2018-12-03T09:24:46.230Z,102760.62
2018-12-03T09:26:22.524Z,102771.28
2018-12-03T09:28:00.683Z,102775.27
2018-12-03T09:29:37.243Z,102786.07
2018-12-03T09:31:25.661Z,102788.72
2018-12-03T09:33:05.952Z,102800.66
2018-12-03T09:34:49.547Z,102782.28
2018-12-03T09:36:38.571Z,102798.52
2018-12-03T09:38:19.845Z,102783.70
2018-12-03T09:40:00.984Z,102767.69
2018-12-03T09:41:44.786Z,102768.21
2018-12-03T09:43:28.066Z,102758.89
2018-12-03T09:45:21.898Z,102760.12
2018-12-03T09:47:08.089Z,102741.77
2018-12-03T09:48:46.680Z,102738.81
2018-12-03T09:50:28.942Z,102709.64
2018-12-03T09:52:08.208Z,102691.63
2018-12-03T09:53:54.409Z,102674.86
2018-12-03T09:55:32.038Z,102679.37
2018-12-03T09:57:11.284Z,102635.73
2018-12-03T09:58:48.259Z,102626.23
2018-12-03T10:04:59.538Z,102557.34
2018-12-03T10:06:56.048Z,102542.83
2018-12-03T10:08:34.996Z,102516.66
2018-12-03T10:10:24.759Z,102504.03
2018-12-03T10:12:07.998Z,102484.48
2018-12-03T10:13:51.466Z,102470.28
2018-12-03T10:16:08.281Z,102454.50
2018-12-03T10:20:22.827Z,102401.76
2018-12-03T10:28:02.359Z,102294.84
2018-12-03T10:29:51.266Z,102288.25
2018-12-03T10:31:43.252Z,102268.89
2018-12-03T10:36:23.209Z,102239.16
2018-12-03T10:40:32.011Z,102192.79
2018-12-03T10:42:22.806Z,102145.72
2018-12-03T10:44:04.061Z,102157.78
2018-12-03T10:47:56.252Z,102171.82
2018-12-03T10:49:43.128Z,102158.78
2018-12-03T10:56:08.131Z,102160.21
2018-12-03T11:00:45.974Z,102167.61
2018-12-03T11:04:59.675Z,102134.41
2018-12-03T11:08:38.428Z,102126.91
2018-12-03T11:10:17.561Z,102117.22
2018-12-03T11:11:54.131Z,102126.69
2018-12-03T11:13:30.758Z,102120.40
2018-12-03T11:15:42.340Z,102126.84
2018-12-03T11:17:49.748Z,102095.94
2018-12-03T11:25:40.605Z,102036.23
2018-12-03T11:29:22.295Z,102024.84
2018-12-03T11:31:39.413Z,102031.81
2018-12-03T11:33:16.323Z,102035.11
2018-12-03T11:34:52.537Z,102002.33
2018-12-03T11:36:56.056Z,102028.61
2018-12-03T11:39:16.064Z,102041.91
2018-12-03T11:41:02.377Z,102046.23
2018-12-03T11:42:42.126Z,102034.09
2018-12-03T11:44:18.995Z,102064.42
2018-12-03T11:49:21.697Z,102037.95
2018-12-03T11:51:09.331Z,102061.69
2018-12-03T11:52:58.165Z,102047.00
2018-12-03T11:55:25.087Z,102031.62
2018-12-03T11:57:21.404Z,102018.18
2018-12-03T11:59:33.904Z,102007.41
2018-12-03T12:01:31.049Z,101985.49
2018-12-03T12:05:38.787Z,101971.23
2018-12-03T12:07:30.393Z,101957.05
2018-12-03T12:09:20.957Z,101929.30
2018-12-03T12:11:35.458Z,101935.09
2018-12-03T12:13:11.728Z,101930.36
2018-12-03T12:15:13.278Z,101918.95
2018-12-03T12:17:11.118Z,101898.55
2018-12-03T12:18:47.767Z,101895.08
2018-12-03T12:20:26.865Z,101880.20
2018-12-03T12:22:03.175Z,101874.30
2018-12-03T12:23:39.444Z,101883.42
2018-12-03T12:25:16.094Z,101868.27
2018-12-03T12:26:55.104Z,101864.41
2018-12-03T12:28:38.228Z,101868.50
2018-12-03T12:30:36.506Z,101862.47
2018-12-03T12:35:02.024Z,101829.28
2018-12-03T12:36:29.416Z,101785.56
2018-12-03T12:38:06.020Z,101770.67
2018-12-03T12:39:42.237Z,101788.88
2018-12-03T12:41:20.282Z,101784.42
2018-12-03T12:42:56.690Z,101765.52
2018-12-03T12:44:33.067Z,101776.45
2018-12-03T12:48:41.526Z,101732.25
2018-12-03T12:50:28.377Z,101677.03
2018-12-03T12:52:55.281Z,101679.77
2018-12-03T12:54:21.625Z,101669.95
2018-12-03T12:55:58.053Z,101640.56
2018-12-03T12:57:37.743Z,101635.98
2018-12-03T13:01:29.108Z,101609.48
2018-12-03T13:03:06.122Z,101582.69
2018-12-03T13:06:44.619Z,101561.30
2018-12-03T13:10:04.233Z,101553.66
2018-12-03T13:11:44.221Z,101542.15
2018-12-03T13:13:21.012Z,101515.83
2018-12-03T13:14:57.620Z,101510.28
2018-12-03T13:17:10.948Z,101496.03
2018-12-03T13:18:34.110Z,101491.28
2018-12-03T13:20:13.523Z,101434.66
2018-12-03T13:22:10.366Z,101438.72
2018-12-03T13:23:57.490Z,101439.44
2018-12-03T13:25:45.216Z,101418.19
2018-12-03T13:27:34.565Z,101412.80
2018-12-03T13:29:22.490Z,101407.25
2018-12-03T13:31:13.512Z,101397.34
2018-12-03T13:33:28.471Z,101373.45
2018-12-03T13:35:06.896Z,101365.81
2018-12-03T13:36:43.377Z,101326.02
2018-12-03T13:38:22.428Z,101341.66
2018-12-03T13:40:10.039Z,101353.46
2018-12-03T13:41:46.708Z,101351.29
2018-12-03T13:43:29.367Z,101329.91
2018-12-03T13:47:09.240Z,101325.71
2018-12-03T13:53:13.482Z,101295.84
2018-12-03T13:57:10.296Z,101275.09
2018-12-03T13:58:47.171Z,101239.60
2018-12-03T14:03:11.438Z,101250.92
2018-12-03T14:07:55.238Z,101211.15
2018-12-03T14:09:45.039Z,101195.95
2018-12-03T14:11:33.618Z,101190.72
2018-12-03T14:13:49.294Z,101191.19
2018-12-03T14:16:02.931Z,101203.73
2018-12-03T14:19:26.266Z,101190.39
2018-12-03T14:20:39.248Z,101187.32
2018-12-03T14:22:38.107Z,101167.56
2018-12-03T14:24:23.898Z,101153.31
2018-12-03T14:28:49.737Z,101168.92
2018-12-03T14:30:37.170Z,101134.72
2018-12-03T14:32:14.973Z,101135.72
2018-12-03T14:34:23.750Z,101152.27
2018-12-03T14:36:00.499Z,101152.50
2018-12-03T14:37:39.123Z,101126.95
2018-12-03T14:39:17.999Z,101146.33
2018-12-03T14:40:54.697Z,101140.86
2018-12-03T14:42:31.374Z,101144.63
2018-12-03T14:44:07.881Z,101133.78
2018-12-03T14:46:17.024Z,101143.16
2018-12-03T14:49:39.030Z,101125.95
2018-12-03T14:51:15.740Z,101118.41
2018-12-03T14:52:52.279Z,101119.30
2018-12-03T14:54:28.584Z,101127.98
2018-12-03T14:56:05.829Z,101126.38
2018-12-03T14:57:42.068Z,101125.71
2018-12-03T14:59:18.719Z,101120.80
2018-12-03T15:09:24.783Z,101072.35
2018-12-03T15:16:04.286Z,101051.37
2018-12-03T15:17:54.249Z,101038.92
2018-12-03T15:21:54.973Z,101047.70
2018-12-03T15:24:04.041Z,101028.88
2018-12-03T15:34:00.366Z,101004.70
2018-12-03T15:36:18.300Z,101005.16
2018-12-03T15:43:43.042Z,101006.53
2018-12-03T15:49:40.849Z,101000.47
2018-12-03T15:53:34.662Z,101007.64
2018-12-03T15:55:13.085Z,101006.87
2018-12-03T15:56:49.395Z,101015.41
2018-12-03T15:59:05.205Z,101024.31
2018-12-03T16:05:04.396Z,100980.09
2018-12-03T16:11:19.181Z,100997.53
2018-12-03T16:12:56.118Z,100981.45
2018-12-03T16:14:33.276Z,100977.45
2018-12-03T16:16:46.947Z,101000.83
2018-12-03T16:18:34.974Z,101015.88
2018-12-03T16:24:28.646Z,100990.92
2018-12-03T16:28:30.767Z,100996.16
2018-12-03T16:30:33.415Z,100981.69
2018-12-03T16:40:06.240Z,100982.80
2018-12-03T16:44:17.028Z,100964.81
2018-12-03T16:46:04.701Z,100967.55
2018-12-03T16:49:49.389Z,100978.92
2018-12-03T16:58:21.228Z,100928.19
2018-12-03T17:00:14.066Z,100922.36
2018-12-03T17:02:36.043Z,100931.92
2018-12-03T17:04:20.545Z,100936.95
2018-12-03T17:06:53.183Z,100943.66
2018-12-03T17:08:59.630Z,100957.45
2018-12-03T17:10:29.897Z,100936.72
2018-12-03T17:12:06.347Z,100932.83
2018-12-03T17:13:42.801Z,100946.36
2018-12-03T17:15:39.655Z,100956.25
2018-12-03T17:17:27.504Z,100973.69
2018-12-03T17:19:16.964Z,100951.59
2018-12-03T17:25:47.866Z,100932.59
2018-12-03T17:27:32.770Z,100937.39
2018-12-03T17:29:11.669Z,100946.39
2018-12-03T17:30:53.243Z,100941.05
2018-12-03T17:32:32.347Z,100942.89
2018-12-03T17:34:09.374Z,100933.78
2018-12-03T17:35:47.056Z,100921.25
2018-12-03T17:37:24.296Z,100928.42
2018-12-03T17:39:09.181Z,100943.82
2018-12-03T17:40:55.379Z,100957.36
2018-12-03T17:45:31.920Z,100914.75
2018-12-03T17:51:19.604Z,100846.40
2018-12-03T17:52:56.916Z,100843.66
2018-12-03T17:54:35.579Z,100823.45
2018-12-03T17:56:12.783Z,100842.31
2018-12-03T18:00:20.902Z,100866.97
2018-12-03T18:02:09.186Z,100856.38
2018-12-03T18:04:19.689Z,100873.45
2018-12-03T18:09:33.061Z,100884.28
2018-12-03T18:11:31.078Z,100872.50
2018-12-03T18:15:22.901Z,100890.92
2018-12-03T18:16:52.815Z,100913.32
2018-12-03T18:18:29.970Z,100914.38
2018-12-03T18:20:07.325Z,100932.28
2018-12-03T18:21:48.520Z,100940.52
2018-12-03T18:23:55.243Z,100940.19
2018-12-03T18:25:35.877Z,100951.50
2018-12-03T18:27:24.257Z,100919.65
2018-12-03T18:29:13.807Z,100923.05
2018-12-03T18:31:41.361Z,100919.75
2018-12-03T18:36:16.739Z,100890.53
2018-12-03T18:40:03.248Z,100859.11
2018-12-03T18:42:10.961Z,100852.04
2018-12-03T18:51:52.902Z,100856.84
2018-12-03T18:55:53.257Z,100852.73
2018-12-03T19:04:35.329Z,100846.03
2018-12-03T19:06:41.750Z,100838.84
2018-12-03T19:08:55.632Z,100841.01
2018-12-03T19:17:16.393Z,100857.27
2018-12-03T19:21:16.453Z,100860.37
2018-12-03T19:23:20.362Z,100849.44
2018-12-03T19:25:08.070Z,100865.23
2018-12-03T19:27:00.755Z,100853.97
2018-12-03T19:28:49.763Z,100869.80
2018-12-03T19:33:08.006Z,100880.73
2018-12-03T19:37:04.581Z,100877.77
2018-12-03T19:41:21.891Z,100933.36
2018-12-03T19:43:01.456Z,100939.63
2018-12-03T19:44:41.984Z,100951.82
2018-12-03T19:55:24.172Z,100950.55
2018-12-03T19:59:09.016Z,100956.82
2018-12-03T20:00:59.208Z,100953.05
2018-12-03T20:02:46.593Z,100985.84
2018-12-03T20:04:55.802Z,100997.48
2018-12-03T20:06:35.996Z,100988.67
2018-12-03T20:15:07.159Z,101022.50
2018-12-03T20:18:52.441Z,101039.38
2018-12-03T20:26:06.303Z,101072.64
2018-12-03T20:30:16.620Z,101069.11
2018-12-03T20:35:08.720Z,101062.61
2018-12-03T20:37:22.559Z,101052.48
2018-12-03T20:39:13.359Z,101052.57
2018-12-03T20:43:55.018Z,101082.54
2018-12-03T20:46:26.080Z,101082.54
2018-12-03T20:47:53.634Z,101080.13
2018-12-03T20:50:21.482Z,101070.90
2018-12-03T20:53:43.964Z,101096.06
2018-12-03T20:55:31.270Z,101118.96
2018-12-03T20:57:08.726Z,101135.03
2018-12-03T20:58:48.271Z,101139.22
2018-12-03T21:08:46.063Z,101128.50
2018-12-03T21:10:26.707Z,101140.56
2018-12-03T21:12:33.960Z,101143.95
2018-12-03T21:16:39.354Z,101124.91
2018-12-03T21:18:15.763Z,101094.14
2018-12-03T21:19:57.301Z,101101.66
2018-12-03T21:21:35.011Z,101114.84
2018-12-03T21:23:15.422Z,101103.36
2018-12-03T21:24:51.920Z,101108.02
2018-12-03T21:26:28.004Z,101100.39
2018-12-03T21:28:05.569Z,101100.95
2018-12-03T21:29:42.272Z,101105.85
2018-12-03T21:34:08.665Z,101100.48
2018-12-03T21:42:20.477Z,101074.28
2018-12-03T21:44:48.929Z,101072.59
2018-12-03T21:47:05.788Z,101091.72
2018-12-03T21:50:50.041Z,101056.53
2018-12-03T21:53:03.943Z,101056.86
2018-12-03T21:54:51.316Z,101072.45
2018-12-03T21:56:37.557Z,101058.55
2018-12-03T22:02:17.602Z,101058.31
2018-12-03T22:04:25.441Z,101059.48
2018-12-03T22:10:57.106Z,101046.71
2018-12-03T22:12:34.114Z,101030.41
2018-12-03T22:14:24.438Z,101021.98
2018-12-03T22:18:13.509Z,101033.71
2018-12-03T22:22:33.221Z,101030.27
2018-12-03T22:24:48.609Z,101023.20
2018-12-03T22:26:52.994Z,101023.53
2018-12-03T22:28:55.963Z,101044.58
2018-12-03T22:36:08.699Z,101053.55
2018-12-03T22:40:19.887Z,101078.36
2018-12-03T22:45:54.513Z,101088.58
2018-12-03T22:48:00.469Z,101085.05
2018-12-03T22:52:08.439Z,101097.89
2018-12-03T22:53:45.151Z,101093.00
2018-12-03T22:56:04.729Z,101114.60
2018-12-03T22:57:55.009Z,101121.75
2018-12-03T22:59:58.846Z,101128.58
2018-12-03T23:01:37.162Z,101137.58
2018-12-03T23:03:35.922Z,101141.20
2018-12-03T23:05:19.000Z,101141.76
2018-12-03T23:07:27.350Z,101130.62
2018-12-03T23:11:41.593Z,101116.26
2018-12-03T23:19:56.518Z,101123.78
2018-12-03T23:23:18.436Z,101146.43
2018-12-03T23:25:06.131Z,101145.30
2018-12-03T23:26:54.754Z,101138.33
2018-12-03T23:29:08.846Z,101148.13
2018-12-03T23:33:06.130Z,101122.70
2018-12-03T23:34:54.159Z,101109.06
2018-12-03T23:36:42.056Z,101109.95
2018-12-03T23:38:31.212Z,101106.97
2018-12-03T23:40:20.136Z,101122.55
2018-12-03T23:42:08.039Z,101116.94
2018-12-03T23:51:49.338Z,101126.77
2018-12-03T23:53:47.849Z,101128.94
2018-12-03T23:55:34.886Z,101140.98
2018-12-03T23:57:12.003Z,101140.66
2018-12-03T23:58:49.407Z,101146.44
